Time;durP1;ratioP1;P1;durP2;ratioP2;P2;SDS_P1;SDS_P2;PMS_P1;PMS_P2;Temp;Humidity;BMP_temperature;BMP_pressure;BME280_temperature;BME280_humidity;BME280_pressure;Samples;Min_cycle;Max_cycle;Signal;HPM_P1;HPM_P2
2023/06/19 00:01:09;;;;;;;13.35;8.20;;;;;;;25.51;43.04;99358.16;4964684;28;20051;-86
2023/06/19 00:03:36;;;;;;;10.55;7.82;;;;;;;25.52;42.40;99352.50;4957640;28;20085;-86
2023/06/19 00:06:03;;;;;;;9.45;7.93;;;;;;;25.44;42.37;99352.91;4970632;28;20042;-87
2023/06/19 00:08:30;;;;;;;9.63;7.65;;;;;;;25.40;42.29;99353.63;4994813;28;20113;-87
2023/06/19 00:10:57;;;;;;;8.65;7.75;;;;;;;25.36;42.69;99357.88;4931220;28;20133;-87
2023/06/19 00:13:24;;;;;;;9.45;8.13;;;;;;;25.29;42.74;99353.44;4972572;28;20043;-87
2023/06/19 00:15:51;;;;;;;9.55;7.65;;;;;;;25.28;42.70;99359.94;4972114;28;20058;-87
2023/06/19 00:18:19;;;;;;;9.18;8.05;;;;;;;25.28;42.57;99353.69;4970520;28;20408;-87
2023/06/19 00:20:46;;;;;;;9.10;8.07;;;;;;;25.26;42.95;99362.06;4972031;28;20055;-87
2023/06/19 00:23:16;;;;;;;9.07;7.88;;;;;;;25.25;43.28;99367.75;4960120;28;20129;-86
2023/06/19 00:25:44;;;;;;;10.38;8.35;;;;;;;25.18;43.34;99370.59;4966446;28;20141;-87
2023/06/19 00:28:14;;;;;;;13.02;7.93;;;;;;;25.16;43.42;99371.88;4956763;28;20177;-87
2023/06/19 00:30:41;;;;;;;9.25;7.70;;;;;;;25.12;43.31;99372.38;4952890;28;20058;-87
2023/06/19 00:33:08;;;;;;;10.18;8.40;;;;;;;25.12;43.50;99377.00;4964427;28;20086;-86
2023/06/19 00:35:35;;;;;;;10.48;8.10;;;;;;;25.11;43.65;99369.91;4954268;28;20043;-87
2023/06/19 00:38:02;;;;;;;8.75;7.85;;;;;;;25.11;43.26;99367.19;4964281;28;20054;-87
2023/06/19 00:40:31;;;;;;;9.85;7.47;;;;;;;25.11;43.14;99372.59;4970803;28;20073;-87
2023/06/19 00:42:58;;;;;;;9.98;8.02;;;;;;;25.15;43.19;99378.41;4943539;28;20505;-86
2023/06/19 00:45:26;;;;;;;9.63;7.65;;;;;;;25.11;43.11;99376.19;4967897;28;20408;-87
2023/06/19 00:47:54;;;;;;;10.40;8.80;;;;;;;25.01;43.95;99375.97;4954060;28;20057;-86
2023/06/19 00:50:24;;;;;;;13.77;7.75;;;;;;;24.96;43.80;99380.47;4957779;28;20109;-87
2023/06/19 00:52:51;;;;;;;9.55;7.82;;;;;;;24.95;44.67;99381.53;4968317;28;20058;-87
2023/06/19 00:55:18;;;;;;;11.00;8.45;;;;;;;24.96;45.33;99391.31;4946007;28;20050;-87
2023/06/19 00:57:46;;;;;;;11.18;8.60;;;;;;;24.88;46.37;99384.38;4955448;28;20126;-86
2023/06/19 01:00:13;;;;;;;12.63;7.95;;;;;;;24.88;46.70;99395.25;4959168;28;20050;-87
2023/06/19 01:02:40;;;;;;;9.18;8.23;;;;;;;24.83;47.64;99392.41;4982003;28;20641;-87
2023/06/19 01:05:07;;;;;;;10.90;8.55;;;;;;;24.80;47.67;99403.78;4954353;28;20042;-86
2023/06/19 01:07:44;;;;;;;12.45;8.57;;;;;;;24.65;48.08;99394.25;4983780;28;20054;-86
2023/06/19 01:10:20;;;;;;;14.68;9.18;;;;;;;24.72;46.69;99406.84;4983443;28;20049;-87
2023/06/19 01:12:56;;;;;;;12.07;8.38;;;;;;;24.69;46.93;99406.25;4937519;28;20050;-86
2023/06/19 01:15:23;;;;;;;11.82;8.32;;;;;;;24.77;46.61;99401.53;4942676;28;20358;-88
2023/06/19 01:17:50;;;;;;;10.95;8.20;;;;;;;24.73;46.57;99406.63;4981902;28;20483;-87
2023/06/19 01:20:17;;;;;;;10.95;8.95;;;;;;;24.68;46.71;99415.50;4985589;28;20050;-87
2023/06/19 01:22:44;;;;;;;10.50;8.35;;;;;;;24.64;47.17;99411.59;4937218;28;20570;-88
2023/06/19 01:25:13;;;;;;;10.32;9.07;;;;;;;24.68;47.31;99409.25;4948237;28;20561;-86
2023/06/19 01:27:42;;;;;;;10.98;8.27;;;;;;;24.69;47.45;99419.84;4965857;28;20085;-87
2023/06/19 01:30:10;;;;;;;11.00;8.65;;;;;;;24.64;47.00;99427.06;4942514;28;20459;-87
2023/06/19 01:32:48;;;;;;;12.52;8.73;;;;;;;24.51;47.73;99436.28;4939852;28;20076;-86
2023/06/19 01:35:18;;;;;;;9.23;8.30;;;;;;;24.61;46.83;99433.78;4957142;28;20058;-87
2023/06/19 01:37:45;;;;;;;10.05;8.60;;;;;;;24.63;46.80;99426.25;4943732;28;20406;-86
2023/06/19 01:40:12;;;;;;;9.60;8.57;;;;;;;24.63;46.90;99425.41;4956022;28;20057;-86
2023/06/19 01:42:40;;;;;;;12.27;9.13;;;;;;;24.59;47.22;99427.75;4971419;28;20081;-87
2023/06/19 01:45:07;;;;;;;11.10;8.23;;;;;;;24.60;47.32;99431.31;4966724;28;20051;-87
2023/06/19 01:47:35;;;;;;;11.70;9.35;;;;;;;24.56;47.58;99433.69;4967644;28;20051;-88
2023/06/19 01:50:02;;;;;;;9.15;8.20;;;;;;;24.59;47.49;99435.91;4959818;28;20066;-86
2023/06/19 01:52:29;;;;;;;14.20;8.13;;;;;;;24.71;46.83;99429.66;4969034;28;20050;-87
2023/06/19 01:54:56;;;;;;;13.20;8.93;;;;;;;24.84;46.55;99430.22;4954448;28;20419;-86
2023/06/19 01:57:23;;;;;;;12.30;8.65;;;;;;;24.90;45.99;99433.84;4961942;28;20163;-86
2023/06/19 01:59:50;;;;;;;10.10;8.88;;;;;;;24.87;45.98;99429.72;4963688;28;20046;-87
2023/06/19 02:02:16;;;;;;;12.70;9.10;;;;;;;24.84;46.17;99432.09;4981004;28;20297;-86
2023/06/19 02:04:43;;;;;;;10.85;8.48;;;;;;;24.73;46.23;99439.22;4958013;28;20492;-87
2023/06/19 02:07:10;;;;;;;9.43;8.43;;;;;;;24.70;46.59;99436.94;4944850;28;20046;-87
2023/06/19 02:09:38;;;;;;;10.25;8.60;;;;;;;24.73;46.94;99443.78;4964468;28;20349;-87
2023/06/19 02:12:05;;;;;;;12.52;8.88;;;;;;;24.72;46.85;99432.13;4961608;28;20492;-86
2023/06/19 02:14:32;;;;;;;9.55;8.05;;;;;;;24.71;46.87;99445.94;4958586;28;20132;-87
2023/06/19 02:16:59;;;;;;;11.52;8.90;;;;;;;24.69;46.96;99435.31;4947038;28;20046;-86
2023/06/19 02:19:25;;;;;;;9.10;8.07;;;;;;;24.73;46.97;99430.22;5004490;28;20133;-86
2023/06/19 02:21:52;;;;;;;9.07;7.78;;;;;;;24.75;46.76;99445.22;4988121;28;20591;-87
2023/06/19 02:24:19;;;;;;;9.93;8.55;;;;;;;24.74;47.14;99445.47;4946923;28;20136;-87
2023/06/19 02:26:46;;;;;;;10.73;9.00;;;;;;;24.77;47.68;99448.53;4948508;28;20511;-87
2023/06/19 02:29:13;;;;;;;9.68;8.18;;;;;;;24.75;47.36;99455.25;4980569;28;20488;-87
2023/06/19 02:31:40;;;;;;;11.23;8.68;;;;;;;24.73;47.56;99454.66;4957562;28;20535;-86
2023/06/19 02:34:07;;;;;;;13.70;8.95;;;;;;;24.73;47.88;99449.22;4958347;28;20057;-86
2023/06/19 02:36:35;;;;;;;12.45;8.70;;;;;;;24.73;48.02;99452.78;4952138;28;20042;-86
2023/06/19 02:39:04;;;;;;;9.40;8.45;;;;;;;24.72;48.28;99458.44;4953599;28;20138;-86
2023/06/19 02:41:31;;;;;;;11.27;8.45;;;;;;;24.75;47.90;99449.81;4928606;28;20073;-86
2023/06/19 02:43:58;;;;;;;9.57;6.88;;;;;;;24.85;47.81;99455.47;4957200;28;20403;-86
2023/06/19 02:46:25;;;;;;;8.88;7.43;;;;;;;24.86;47.69;99468.00;4929649;28;20496;-86
2023/06/19 02:48:52;;;;;;;10.88;7.95;;;;;;;24.89;47.77;99460.19;4946672;28;20046;-87
2023/06/19 02:51:18;;;;;;;10.23;7.45;;;;;;;24.92;47.88;99465.16;4943439;28;20121;-86
2023/06/19 02:53:45;;;;;;;9.60;8.55;;;;;;;24.94;48.17;99466.81;4942704;28;20743;-86
2023/06/19 02:56:12;;;;;;;10.40;6.45;;;;;;;24.97;48.09;99472.59;4966433;28;20050;-86
2023/06/19 02:58:39;;;;;;;7.38;5.85;;;;;;;24.97;48.18;99469.03;4956548;28;20093;-85
2023/06/19 03:01:08;;;;;;;7.13;5.88;;;;;;;24.99;48.44;99475.06;4931486;28;20314;-86
2023/06/19 03:03:37;;;;;;;7.78;6.22;;;;;;;25.00;48.43;99476.72;4974090;28;20500;-85
2023/06/19 03:06:06;;;;;;;7.90;5.57;;;;;;;25.00;48.64;99484.88;4974039;28;20053;-85
2023/06/19 03:08:37;;;;;;;8.95;5.90;;;;;;;25.00;48.99;99487.56;4930828;28;21168;-86
2023/06/19 03:11:05;;;;;;;6.57;5.85;;;;;;;25.01;48.70;99483.78;4957943;28;20042;-85
2023/06/19 03:13:52;;;;;;;8.00;6.00;;;;;;;24.86;50.40;99492.44;4959848;28;20125;-87
2023/06/19 03:16:20;;;;;;;6.75;5.40;;;;;;;24.97;49.63;99483.44;4969218;28;20050;-86
2023/06/19 03:18:48;;;;;;;7.70;5.70;;;;;;;24.99;49.95;99486.75;4927877;28;20070;-87
2023/06/19 03:21:21;;;;;;;7.30;5.40;;;;;;;24.97;50.72;99483.44;4965801;28;20411;-86
2023/06/19 03:23:50;;;;;;;8.88;5.72;;;;;;;24.95;51.84;99490.19;4970284;28;20046;-86
2023/06/19 03:26:20;;;;;;;10.00;5.75;;;;;;;24.91;51.75;99504.25;4943674;28;20059;-87
2023/06/19 03:28:47;;;;;;;7.38;5.10;;;;;;;24.88;52.35;99512.88;4973679;28;20405;-86
2023/06/19 03:31:14;;;;;;;6.00;5.38;;;;;;;24.89;52.36;99530.81;4951503;28;20527;-86
2023/06/19 03:33:41;;;;;;;7.05;5.22;;;;;;;24.90;52.29;99535.16;4958860;28;20051;-86
2023/06/19 03:36:09;;;;;;;9.10;5.60;;;;;;;24.92;52.16;99540.38;4955984;28;20126;-87
2023/06/19 03:38:48;;;;;;;5.80;5.03;;;;;;;24.90;51.62;99524.31;4969688;28;20462;-87
2023/06/19 03:41:18;;;;;;;9.48;4.80;;;;;;;24.90;51.56;99528.91;4970515;28;20057;-86
2023/06/19 03:43:45;;;;;;;5.82;5.10;;;;;;;24.84;51.84;99529.88;4945218;28;20492;-87
2023/06/19 03:46:12;;;;;;;6.00;4.97;;;;;;;24.82;52.44;99532.81;4979841;28;20500;-86
2023/06/19 03:48:39;;;;;;;7.10;4.93;;;;;;;24.85;51.85;99542.38;4971591;28;20062;-86
2023/06/19 03:51:06;;;;;;;8.43;5.13;;;;;;;24.86;51.78;99535.91;4988702;28;20058;-86
2023/06/19 03:53:33;;;;;;;5.28;4.75;;;;;;;24.83;51.97;99539.91;4986657;28;20477;-86
2023/06/19 03:55:59;;;;;;;7.13;4.40;;;;;;;24.86;51.80;99544.06;4967955;28;20065;-87
2023/06/19 03:58:26;;;;;;;4.22;3.83;;;;;;;24.80;52.07;99534.13;4972816;28;20105;-86
2023/06/19 04:00:53;;;;;;;5.50;4.50;;;;;;;24.81;52.10;99533.88;4966048;28;20504;-86
2023/06/19 04:03:20;;;;;;;4.47;4.07;;;;;;;24.83;52.00;99541.78;4988059;28;20400;-86
2023/06/19 04:05:47;;;;;;;7.07;3.67;;;;;;;24.82;52.30;99553.72;5001237;28;20138;-87
2023/06/19 04:08:15;;;;;;;4.18;3.78;;;;;;;24.83;52.41;99567.06;4958110;28;20051;-86
2023/06/19 04:10:43;;;;;;;5.18;3.80;;;;;;;24.79;52.48;99578.63;4900121;28;20059;-85
2023/06/19 04:13:10;;;;;;;6.00;4.25;;;;;;;24.79;52.88;99576.75;4911074;29;20666;-85
2023/06/19 04:15:37;;;;;;;6.97;4.30;;;;;;;24.78;52.98;99585.97;4936069;28;20053;-87
2023/06/19 04:18:04;;;;;;;4.20;3.67;;;;;;;24.79;53.15;99581.34;4942719;28;20566;-86
2023/06/19 04:20:31;;;;;;;4.50;3.60;;;;;;;24.81;52.74;99584.66;4973572;28;20054;-86
2023/06/19 04:22:58;;;;;;;13.88;5.20;;;;;;;24.78;52.87;99582.41;4953613;28;20039;-86
2023/06/19 04:25:25;;;;;;;9.15;4.40;;;;;;;24.83;52.91;99586.09;4954863;28;20047;-86
2023/06/19 04:27:52;;;;;;;4.18;3.78;;;;;;;24.81;53.06;99593.63;4963576;28;20053;-86
2023/06/19 04:30:20;;;;;;;4.38;3.85;;;;;;;24.84;52.80;99598.59;4939484;28;20047;-86
2023/06/19 04:32:48;;;;;;;4.95;4.15;;;;;;;24.82;53.02;99599.88;4943511;28;20503;-86
2023/06/19 04:35:18;;;;;;;5.13;4.10;;;;;;;24.84;53.20;99605.91;4937852;28;20081;-87
2023/06/19 04:37:45;;;;;;;7.18;4.28;;;;;;;24.79;53.23;99590.31;4969125;28;20582;-87
2023/06/19 04:40:12;;;;;;;5.82;4.50;;;;;;;24.82;53.21;99603.44;4942061;28;20039;-87
2023/06/19 04:42:38;;;;;;;6.10;4.40;;;;;;;24.84;53.28;99605.91;4958896;28;20332;-86
2023/06/19 04:45:09;;;;;;;5.05;3.97;;;;;;;24.83;53.25;99609.69;4988475;28;20058;-86
2023/06/19 04:47:36;;;;;;;6.80;4.35;;;;;;;24.82;53.45;99597.19;4972958;28;20057;-87
2023/06/19 04:50:18;;;;;;;6.47;4.60;;;;;;;24.87;53.61;99605.44;4978206;28;20046;-87
2023/06/19 04:52:45;;;;;;;5.82;4.20;;;;;;;24.87;53.59;99605.44;4950228;28;20058;-86
2023/06/19 04:55:12;;;;;;;5.95;4.30;;;;;;;24.86;53.75;99598.38;4943154;28;20104;-87
2023/06/19 04:57:39;;;;;;;4.60;4.13;;;;;;;24.88;53.64;99599.78;4948379;28;20382;-86
2023/06/19 05:00:06;;;;;;;5.45;4.53;;;;;;;24.92;53.79;99605.56;4948048;28;20050;-87
2023/06/19 05:02:33;;;;;;;5.65;4.43;;;;;;;24.89;54.29;99604.16;4979382;28;20062;-86
2023/06/19 05:05:03;;;;;;;7.40;4.50;;;;;;;24.88;54.34;99607.94;4959498;28;20047;-86
2023/06/19 05:07:31;;;;;;;5.78;4.53;;;;;;;24.88;53.96;99604.38;4948022;28;20134;-86
2023/06/19 05:09:59;;;;;;;6.18;4.30;;;;;;;24.89;54.23;99609.56;4968170;28;20050;-87
2023/06/19 05:12:26;;;;;;;7.65;4.50;;;;;;;24.91;54.25;99621.03;4969384;28;20122;-86
2023/06/19 05:14:52;;;;;;;7.68;4.38;;;;;;;24.94;54.76;99618.91;4959823;28;20046;-87
2023/06/19 05:17:19;;;;;;;6.40;4.70;;;;;;;24.95;55.04;99620.56;4939704;28;20035;-88
2023/06/19 05:19:46;;;;;;;5.30;4.47;;;;;;;24.98;54.74;99623.63;4974198;28;20106;-88
2023/06/19 05:22:13;;;;;;;5.07;4.53;;;;;;;24.99;54.93;99616.31;5000990;28;20472;-84
2023/06/19 05:24:42;;;;;;;7.70;4.85;;;;;;;24.97;54.77;99615.72;4978264;28;20714;-87
2023/06/19 05:27:09;;;;;;;6.05;4.40;;;;;;;24.93;54.67;99612.63;4957746;28;20041;-87
2023/06/19 05:29:36;;;;;;;7.55;4.50;;;;;;;24.95;54.91;99618.66;4967580;28;20046;-88
2023/06/19 05:32:03;;;;;;;6.72;4.60;;;;;;;24.91;55.19;99615.59;4959907;28;20449;-87
2023/06/19 05:34:30;;;;;;;5.55;4.75;;;;;;;24.93;55.04;99628.94;4952273;28;20105;-88
2023/06/19 05:36:58;;;;;;;6.47;4.85;;;;;;;24.89;54.99;99617.72;4944676;28;20051;-88
2023/06/19 05:39:25;;;;;;;7.53;4.20;;;;;;;24.91;54.99;99629.19;4978444;28;20117;-88
2023/06/19 05:41:51;;;;;;;5.80;4.57;;;;;;;24.89;55.21;99614.19;4959777;28;20073;-88
2023/06/19 05:44:18;;;;;;;6.10;4.50;;;;;;;24.88;54.86;99618.81;4959497;28;20471;-88
2023/06/19 05:46:45;;;;;;;7.80;4.50;;;;;;;24.85;55.19;99626.56;4958812;28;20118;-85
2023/06/19 05:49:12;;;;;;;5.50;4.82;;;;;;;24.90;55.06;99622.09;4983788;28;20042;-86
2023/06/19 05:51:39;;;;;;;6.00;4.50;;;;;;;24.94;55.11;99629.78;4938264;28;20062;-87
2023/06/19 05:54:06;;;;;;;7.07;4.60;;;;;;;24.93;55.28;99637.09;4936474;28;20542;-86
2023/06/19 05:56:33;;;;;;;5.63;5.03;;;;;;;24.97;55.03;99637.47;4971990;28;20480;-86
2023/06/19 05:59:01;;;;;;;7.93;4.65;;;;;;;24.95;55.23;99640.41;4954170;28;20077;-86
2023/06/19 06:01:29;;;;;;;8.70;4.50;;;;;;;24.99;54.94;99635.34;4970706;28;20642;-86
2023/06/19 06:03:56;;;;;;;4.78;4.22;;;;;;;25.04;54.64;99628.13;4954828;28;20054;-86
2023/06/19 06:06:24;;;;;;;8.50;4.72;;;;;;;25.12;54.77;99637.81;4973594;28;20070;-86
2023/06/19 06:08:54;;;;;;;7.50;4.85;;;;;;;25.20;54.83;99640.22;4956658;28;20066;-86
2023/06/19 06:11:22;;;;;;;8.45;4.82;;;;;;;25.21;54.73;99641.03;4960002;28;20050;-85
2023/06/19 06:13:49;;;;;;;6.93;4.43;;;;;;;25.22;54.66;99642.72;4917941;28;20371;-86
2023/06/19 06:16:16;;;;;;;6.47;4.63;;;;;;;25.25;54.69;99643.03;4944625;28;20048;-86
2023/06/19 06:18:45;;;;;;;6.28;5.20;;;;;;;25.38;54.54;99647.41;4943261;28;20662;-87
2023/06/19 06:21:12;;;;;;;6.10;4.45;;;;;;;25.30;54.27;99642.34;4937062;28;20161;-86
2023/06/19 06:23:44;;;;;;;5.38;4.43;;;;;;;25.26;54.73;99646.59;4926207;28;20050;-87
2023/06/19 06:26:11;;;;;;;6.40;5.00;;;;;;;25.31;54.64;99646.69;4946960;28;20046;-86
2023/06/19 06:28:39;;;;;;;6.07;4.47;;;;;;;25.36;54.58;99652.25;4951949;28;20469;-87
2023/06/19 06:31:06;;;;;;;4.63;4.15;;;;;;;25.38;54.62;99646.59;4937413;28;20464;-86
2023/06/19 06:33:33;;;;;;;4.85;4.38;;;;;;;25.38;54.66;99654.75;4903481;28;20047;-87
2023/06/19 06:36:00;;;;;;;5.13;4.40;;;;;;;25.37;54.45;99651.22;4933967;28;20359;-87
2023/06/19 06:38:27;;;;;;;5.88;4.88;;;;;;;25.45;54.39;99648.13;4934259;28;20117;-86
2023/06/19 06:40:54;;;;;;;5.07;4.30;;;;;;;25.52;54.20;99648.00;4946101;28;20046;-86
2023/06/19 06:43:21;;;;;;;5.70;4.22;;;;;;;25.58;54.04;99646.22;4959660;28;20046;-88
2023/06/19 06:45:47;;;;;;;6.63;4.80;;;;;;;25.64;53.65;99650.69;4960138;28;20048;-87
2023/06/19 06:48:15;;;;;;;5.75;4.70;;;;;;;25.67;53.88;99648.34;4953540;28;20054;-87
2023/06/19 06:50:43;;;;;;;9.70;4.90;;;;;;;25.65;54.03;99652.38;4951529;28;20121;-86
2023/06/19 06:53:10;;;;;;;4.95;4.25;;;;;;;25.70;53.67;99656.00;4935118;28;20050;-86
2023/06/19 06:55:37;;;;;;;5.93;5.32;;;;;;;25.73;53.81;99647.38;4931974;28;20046;-87
2023/06/19 06:58:05;;;;;;;7.45;5.10;;;;;;;25.77;53.48;99655.88;4930602;28;20051;-87
2023/06/19 07:00:32;;;;;;;6.75;4.72;;;;;;;25.79;53.53;99645.56;4976988;28;20054;-86
2023/06/19 07:02:59;;;;;;;5.80;4.57;;;;;;;25.82;53.60;99647.81;4990008;28;20065;-87
2023/06/19 07:05:26;;;;;;;5.80;4.90;;;;;;;25.87;53.49;99660.72;4967506;28;20043;-85
2023/06/19 07:07:53;;;;;;;7.38;4.85;;;;;;;25.88;53.51;99659.69;4972249;28;20092;-88
2023/06/19 07:10:20;;;;;;;6.15;5.28;;;;;;;25.92;53.72;99660.84;4949503;28;20693;-88
2023/06/19 07:12:48;;;;;;;7.63;5.15;;;;;;;25.90;53.92;99669.25;4929014;28;20067;-87
2023/06/19 07:15:14;;;;;;;7.70;5.35;;;;;;;25.92;53.78;99661.66;4893273;28;20564;-88
2023/06/19 07:17:41;;;;;;;5.53;4.55;;;;;;;25.97;53.70;99667.19;4925407;28;25470;-87
2023/06/19 07:20:09;;;;;;;6.63;5.10;;;;;;;26.02;53.31;99671.09;4918238;28;20050;-87
2023/06/19 07:22:35;;;;;;;5.28;4.78;;;;;;;26.10;53.48;99665.28;4984308;28;20140;-89
2023/06/19 07:25:06;;;;;;;10.20;5.90;;;;;;;26.08;52.95;99662.81;4963908;28;20043;-87
2023/06/19 07:27:33;;;;;;;6.43;5.07;;;;;;;26.06;53.11;99664.94;4978984;28;20105;-87
2023/06/19 07:29:59;;;;;;;7.20;6.15;;;;;;;26.03;53.32;99676.31;4943022;28;20061;-86
2023/06/19 07:32:26;;;;;;;6.57;5.28;;;;;;;26.01;52.92;99672.19;4949970;28;20046;-88
2023/06/19 07:34:53;;;;;;;7.22;4.97;;;;;;;26.03;53.20;99679.03;4971956;28;20047;-87
2023/06/19 07:37:23;;;;;;;6.50;5.20;;;;;;;26.00;53.12;99676.78;4972060;28;20049;-88
2023/06/19 07:39:51;;;;;;;6.28;5.25;;;;;;;26.02;53.53;99680.09;4962010;28;20050;-88
2023/06/19 07:42:19;;;;;;;9.30;5.72;;;;;;;26.07;53.32;99685.63;4962442;28;20050;-87
2023/06/19 07:44:46;;;;;;;8.98;5.97;;;;;;;26.08;53.15;99681.00;4980555;28;20058;-87
2023/06/19 07:47:15;;;;;;;7.55;5.95;;;;;;;26.05;53.03;99687.75;4943649;28;20264;-87
2023/06/19 07:49:41;;;;;;;7.32;6.13;;;;;;;26.01;52.63;99685.78;4973432;28;20050;-87
2023/06/19 07:52:12;;;;;;;7.57;6.68;;;;;;;25.99;52.84;99680.56;4969092;28;20050;-88
2023/06/19 07:54:59;;;;;;;10.00;7.05;;;;;;;25.96;52.95;99695.47;4961719;28;20074;-87
2023/06/19 07:57:26;;;;;;;10.02;6.68;;;;;;;26.09;52.64;99702.53;4939861;28;20058;-87
2023/06/19 07:59:54;;;;;;;8.30;6.85;;;;;;;26.05;52.73;99695.09;4982429;28;20042;-87
2023/06/19 08:02:20;;;;;;;8.63;6.40;;;;;;;26.07;52.92;99695.69;4939471;28;20049;-87
2023/06/19 08:04:48;;;;;;;9.77;6.90;;;;;;;26.08;53.28;99695.47;4947053;28;20412;-87
2023/06/19 08:07:15;;;;;;;10.52;7.18;;;;;;;26.15;53.33;99695.31;4964822;28;20046;-88
2023/06/19 08:09:41;;;;;;;9.40;7.28;;;;;;;26.14;53.34;99705.38;4961614;28;20051;-88
2023/06/19 08:12:08;;;;;;;10.93;7.47;;;;;;;26.15;52.99;99708.91;4968317;28;20054;-86
2023/06/19 08:14:35;;;;;;;9.57;7.25;;;;;;;26.17;52.99;99709.50;4982419;28;20054;-88
2023/06/19 08:17:02;;;;;;;12.40;7.95;;;;;;;26.12;53.26;99706.69;4932310;28;20076;-86
2023/06/19 08:19:29;;;;;;;10.25;8.02;;;;;;;26.12;53.13;99704.78;4961576;28;20054;-88
2023/06/19 08:21:56;;;;;;;10.40;6.97;;;;;;;26.09;53.59;99708.00;4946381;28;20062;-87
2023/06/19 08:24:23;;;;;;;12.68;8.43;;;;;;;26.12;52.95;99704.78;4948728;28;20047;-87
2023/06/19 08:26:50;;;;;;;12.70;8.15;;;;;;;26.12;53.02;99707.50;4934173;28;20142;-87
2023/06/19 08:29:18;;;;;;;12.95;8.05;;;;;;;26.15;52.97;99704.28;4943022;28;20043;-88
2023/06/19 08:31:45;;;;;;;12.30;8.65;;;;;;;26.19;52.77;99719.09;4949838;28;20116;-86
2023/06/19 08:34:12;;;;;;;15.20;8.35;;;;;;;26.13;52.87;99708.31;4937851;28;20054;-88
2023/06/19 08:36:39;;;;;;;8.52;7.38;;;;;;;26.11;52.57;99703.13;4946002;28;20055;-88
2023/06/19 08:39:08;;;;;;;18.08;8.73;;;;;;;26.12;52.55;99706.69;4959227;28;20054;-87
2023/06/19 08:41:37;;;;;;;15.75;9.55;;;;;;;26.13;52.72;99711.03;4936963;28;20508;-87
2023/06/19 08:44:05;;;;;;;14.63;9.63;;;;;;;26.12;52.78;99707.50;4971671;28;20070;-87
2023/06/19 08:46:32;;;;;;;12.70;8.40;;;;;;;26.15;52.78;99712.47;4974012;28;20050;-87
2023/06/19 08:49:00;;;;;;;15.40;8.85;;;;;;;26.22;52.70;99719.69;4933705;28;20057;-88
2023/06/19 08:51:28;;;;;;;11.05;8.20;;;;;;;26.26;52.97;99718.97;4960268;28;20108;-87
2023/06/19 08:53:59;;;;;;;14.07;8.55;;;;;;;26.30;52.85;99713.84;4947354;28;20101;-85
2023/06/19 08:56:26;;;;;;;15.40;9.95;;;;;;;26.37;52.97;99714.53;4945225;28;20570;-86
2023/06/19 08:58:53;;;;;;;22.45;9.65;;;;;;;26.44;53.01;99715.22;4982578;28;20453;-86
2023/06/19 09:01:20;;;;;;;20.60;10.00;;;;;;;26.49;53.15;99711.78;4967352;28;20054;-85
2023/06/19 09:03:51;;;;;;;15.63;10.38;;;;;;;26.57;52.83;99716.84;4942720;28;20042;-87
2023/06/19 09:06:19;;;;;;;17.13;9.77;;;;;;;26.63;52.71;99707.69;4973464;28;20125;-86
2023/06/19 09:08:45;;;;;;;13.05;9.30;;;;;;;26.68;52.47;99712.41;4975149;28;20453;-87
2023/06/19 09:11:12;;;;;;;15.80;8.60;;;;;;;26.67;52.65;99710.78;4979694;28;20094;-87
2023/06/19 09:13:39;;;;;;;14.02;9.48;;;;;;;26.68;52.68;99715.97;4940619;28;20050;-87
2023/06/19 09:16:07;;;;;;;14.20;9.90;;;;;;;26.67;52.72;99717.03;4954802;28;20047;-87
2023/06/19 09:18:46;;;;;;;11.40;8.52;;;;;;;26.64;52.98;99720.25;4932959;28;20047;-86
2023/06/19 09:21:21;;;;;;;16.65;10.35;;;;;;;26.68;52.50;99717.88;4985298;28;20054;-87
2023/06/19 09:23:51;;;;;;;11.95;8.77;;;;;;;26.67;52.65;99714.31;4942118;28;20046;-86
2023/06/19 09:26:24;;;;;;;12.50;9.00;;;;;;;26.59;53.07;99723.72;4984832;28;20046;-87
2023/06/19 09:28:51;;;;;;;14.60;9.70;;;;;;;26.62;53.13;99719.69;4957823;28;20368;-86
2023/06/19 09:31:18;;;;;;;14.20;9.25;;;;;;;26.65;53.40;99721.91;4975476;28;20047;-86
2023/06/19 09:33:45;;;;;;;13.10;8.88;;;;;;;26.66;53.35;99720.00;4970963;28;20073;-87
2023/06/19 09:36:13;;;;;;;12.55;9.32;;;;;;;26.76;53.02;99729.19;4959782;28;20047;-87
2023/06/19 09:38:42;;;;;;;13.23;9.07;;;;;;;26.75;53.01;99724.81;4964362;28;20427;-87
2023/06/19 09:41:12;;;;;;;14.20;10.23;;;;;;;26.74;53.18;99719.59;4986927;28;20041;-86
2023/06/19 09:43:42;;;;;;;11.77;8.77;;;;;;;26.71;52.83;99731.81;4958067;28;20054;-88
2023/06/19 09:46:10;;;;;;;12.35;9.23;;;;;;;26.82;52.99;99730.13;4974967;28;20172;-86
2023/06/19 09:48:45;;;;;;;12.00;9.18;;;;;;;26.88;53.17;99742.75;4982853;28;20108;-88
2023/06/19 09:51:22;;;;;;;13.07;8.95;;;;;;;26.91;53.20;99727.81;4942492;28;20066;-86
2023/06/19 09:53:52;;;;;;;13.65;10.07;;;;;;;26.98;52.80;99721.13;4985071;28;20043;-87
2023/06/19 09:56:21;;;;;;;13.05;11.30;;;;;;;27.01;52.66;99720.63;4945467;28;20047;-87
2023/06/19 09:58:51;;;;;;;13.77;9.60;;;;;;;26.94;53.15;99724.59;4944141;28;20043;-87
2023/06/19 10:01:18;;;;;;;12.80;10.30;;;;;;;26.89;52.78;99732.69;4961744;28;20051;-88
2023/06/19 10:03:46;;;;;;;12.27;9.80;;;;;;;26.77;52.83;99711.78;4957878;28;20129;-88
2023/06/19 10:06:15;;;;;;;10.73;8.85;;;;;;;26.88;52.40;99715.50;4967632;28;20045;-87
2023/06/19 10:08:43;;;;;;;11.55;8.00;;;;;;;26.85;52.21;99703.19;4943410;28;20411;-87
2023/06/19 10:11:11;;;;;;;10.73;8.70;;;;;;;26.90;52.59;99707.91;4950090;28;20056;-87
2023/06/19 10:13:41;;;;;;;10.63;8.32;;;;;;;26.87;52.20;99702.97;4979774;28;20046;-88
2023/06/19 10:16:23;;;;;;;10.93;8.35;;;;;;;26.76;52.97;99710.09;4962076;28;20050;-87
2023/06/19 10:18:50;;;;;;;11.63;8.00;;;;;;;26.81;52.82;99701.22;4977093;28;20102;-87
2023/06/19 10:21:19;;;;;;;9.73;6.57;;;;;;;26.87;52.83;99696.66;4973443;28;20120;-88
2023/06/19 10:23:56;;;;;;;9.70;6.68;;;;;;;26.84;52.27;99698.84;4991341;28;20073;-87
2023/06/19 10:26:33;;;;;;;7.28;6.57;;;;;;;26.90;52.12;99694.28;4961465;28;20460;-88
2023/06/19 10:29:01;;;;;;;9.32;6.72;;;;;;;27.01;52.00;99690.66;5004000;28;20102;-88
2023/06/19 10:31:28;;;;;;;7.53;6.53;;;;;;;26.92;51.79;99696.75;4975522;28;20046;-87
2023/06/19 10:33:55;;;;;;;7.28;6.32;;;;;;;26.95;51.68;99693.56;4971970;28;20061;-88
2023/06/19 10:36:25;;;;;;;9.52;6.05;;;;;;;27.02;51.98;99695.06;4945676;28;20042;-88
2023/06/19 10:38:52;;;;;;;7.85;6.85;;;;;;;26.99;51.63;99690.06;4969389;28;20745;-88
2023/06/19 10:41:21;;;;;;;7.22;6.53;;;;;;;27.01;52.05;99682.47;4977829;28;20102;-87
2023/06/19 10:43:57;;;;;;;9.52;6.53;;;;;;;26.91;51.86;99693.22;4962489;28;20475;-87
2023/06/19 10:46:28;;;;;;;8.60;7.38;;;;;;;26.99;51.50;99691.97;4980375;28;20046;-88
2023/06/19 10:49:04;;;;;;;7.30;5.55;;;;;;;26.91;51.87;99687.75;4976412;28;20050;-86
2023/06/19 10:51:34;;;;;;;6.40;5.68;;;;;;;26.94;52.04;99683.72;4981690;28;20419;-87
2023/06/19 10:54:01;;;;;;;9.40;6.82;;;;;;;27.01;51.37;99681.66;4960824;28;20101;-88
2023/06/19 10:56:28;;;;;;;7.53;6.25;;;;;;;27.06;51.56;99676.28;4991540;28;20057;-86
2023/06/19 10:59:09;;;;;;;8.45;7.13;;;;;;;27.09;51.58;99686.69;4963823;28;20050;-87
2023/06/19 11:01:41;;;;;;;7.05;6.35;;;;;;;27.16;51.55;99690.09;4956738;28;20046;-87
2023/06/19 11:04:10;;;;;;;6.55;5.18;;;;;;;27.18;51.30;99670.78;4975266;28;20078;-88
2023/06/19 11:06:37;;;;;;;7.22;5.82;;;;;;;27.20;51.23;99668.66;4955812;28;20503;-86
2023/06/19 11:09:06;;;;;;;6.50;5.90;;;;;;;27.22;51.31;99671.94;4987612;28;20085;-88
2023/06/19 11:11:41;;;;;;;6.50;5.90;;;;;;;27.10;50.74;99660.28;4950809;28;20083;-89
2023/06/19 11:14:09;;;;;;;6.65;5.95;;;;;;;26.97;50.99;99666.88;4979129;28;20046;-88
2023/06/19 11:16:41;;;;;;;6.72;5.88;;;;;;;27.01;51.06;99670.75;4974181;28;20407;-87
2023/06/19 11:19:09;;;;;;;;;;;;;;;26.88;51.66;99662.91;4972985;28;20058;-87
2023/06/19 11:21:38;;;;;;;6.78;6.07;;;;;;;27.12;51.27;99661.69;4985321;28;19928;-85
2023/06/19 11:24:06;;;;;;;6.20;5.53;;;;;;;27.17;51.55;99656.31;4975688;28;20047;-85
2023/06/19 11:26:49;;;;;;;7.22;5.82;;;;;;;27.16;51.11;99660.09;4975244;28;20052;-85
2023/06/19 11:29:22;;;;;;;;;;;;;;;26.96;50.47;99657.06;4981774;28;20097;-84
2023/06/19 11:31:50;;;;;;;5.15;4.72;;;;;;;27.18;49.96;99659.91;4966943;28;20296;-87
2023/06/19 11:34:17;;;;;;;7.38;5.65;;;;;;;27.02;50.03;99656.91;4976893;28;20216;-88
2023/06/19 11:36:50;;;;;;;8.70;6.13;;;;;;;27.01;50.00;99657.13;4988601;28;20049;-87